createdAt,value
2018-12-16T00:01:24.813Z,21.53
2018-12-16T00:03:53.639Z,21.87
2018-12-16T00:06:23.207Z,21.80
2018-12-16T00:08:52.026Z,22.27
2018-12-16T00:11:20.901Z,21.43
2018-12-16T00:13:49.732Z,21.47
2018-12-16T00:16:18.570Z,23.47
2018-12-16T00:18:47.437Z,23.83
2018-12-16T00:21:18.467Z,24.70
2018-12-16T00:23:45.807Z,25.23
2018-12-16T00:26:14.645Z,27.77
2018-12-16T00:28:43.473Z,28.77
2018-12-16T00:31:12.301Z,29.60
2018-12-16T00:33:41.135Z,28.77
2018-12-16T00:36:09.990Z,27.27
2018-12-16T00:38:38.841Z,25.90
2018-12-16T00:41:07.687Z,22.37
2018-12-16T00:43:36.517Z,25.53
2018-12-16T00:46:05.361Z,22.90
2018-12-16T00:48:34.197Z,22.73
2018-12-16T00:51:03.031Z,22.97
2018-12-16T00:53:31.861Z,21.97
2018-12-16T00:56:00.721Z,22.80
2018-12-16T00:58:29.557Z,23.08
2018-12-16T01:00:58.391Z,25.40
2018-12-16T01:03:27.226Z,23.07
2018-12-16T01:05:56.049Z,23.47
2018-12-16T01:08:24.881Z,26.30
2018-12-16T01:10:53.714Z,23.70
2018-12-16T01:13:22.555Z,23.10
2018-12-16T01:15:52.131Z,25.73
2018-12-16T01:18:20.985Z,24.83
2018-12-16T01:20:49.814Z,23.93
2018-12-16T01:23:18.631Z,23.50
2018-12-16T01:25:47.482Z,22.90
2018-12-16T01:28:16.310Z,24.60
2018-12-16T01:30:45.155Z,23.87
2018-12-16T01:33:13.983Z,23.90
2018-12-16T01:35:43.398Z,21.77
2018-12-16T01:38:12.239Z,22.70
2018-12-16T01:40:41.077Z,22.57
2018-12-16T01:43:09.901Z,23.07
2018-12-16T01:45:38.735Z,22.20
2018-12-16T01:48:07.566Z,23.83
2018-12-16T01:50:36.391Z,21.63
2018-12-16T01:53:05.235Z,24.37
2018-12-16T01:55:34.071Z,23.17
2018-12-16T01:58:02.900Z,23.10
2018-12-16T02:00:32.474Z,24.07
2018-12-16T02:03:01.298Z,25.10
2018-12-16T02:05:30.141Z,26.37
2018-12-16T02:07:58.964Z,24.67
2018-12-16T02:10:28.561Z,25.57
2018-12-16T02:12:57.386Z,25.12
2018-12-16T02:15:26.225Z,25.60
2018-12-16T02:17:55.067Z,25.10
2018-12-16T02:20:23.893Z,24.63
2018-12-16T02:22:56.854Z,24.33
2018-12-16T02:25:22.323Z,23.57
2018-12-16T02:27:51.151Z,23.60
2018-12-16T02:30:25.447Z,25.52
2018-12-16T02:32:54.288Z,23.70
2018-12-16T02:35:23.121Z,24.60
2018-12-16T02:37:51.957Z,24.17
2018-12-16T02:40:20.779Z,23.47
2018-12-16T02:42:49.636Z,23.97
2018-12-16T02:45:19.403Z,25.15
2018-12-16T02:47:47.288Z,25.73
2018-12-16T02:50:16.126Z,25.13
2018-12-16T02:52:45.547Z,23.80
2018-12-16T02:55:15.122Z,24.20
2018-12-16T02:57:43.949Z,25.57
2018-12-16T03:00:12.012Z,24.60
2018-12-16T03:02:40.863Z,24.97
2018-12-16T03:05:09.689Z,23.23
2018-12-16T03:07:38.522Z,28.17
2018-12-16T03:10:07.351Z,23.47
2018-12-16T03:12:36.216Z,24.40
2018-12-16T03:15:05.062Z,24.17
2018-12-16T03:17:33.897Z,23.70
2018-12-16T03:20:02.735Z,24.13
2018-12-16T03:22:31.568Z,24.77
2018-12-16T03:25:00.421Z,23.67
2018-12-16T03:27:29.263Z,23.77
2018-12-16T03:29:58.106Z,24.30
2018-12-16T03:32:26.942Z,22.83
2018-12-16T03:34:55.765Z,23.17
2018-12-16T03:37:24.610Z,23.40
2018-12-16T03:39:53.448Z,24.70
2018-12-16T03:42:22.269Z,23.97
2018-12-16T03:44:51.103Z,25.30
2018-12-16T03:47:19.961Z,24.10
2018-12-16T03:49:48.816Z,24.55
2018-12-16T03:52:17.636Z,24.40
2018-12-16T03:54:46.480Z,24.10
2018-12-16T03:57:15.327Z,25.23
2018-12-16T03:59:44.150Z,25.92
2018-12-16T04:02:13.734Z,23.80
2018-12-16T04:04:43.316Z,28.40
2018-12-16T04:07:12.131Z,24.90
2018-12-16T04:09:40.965Z,26.23
2018-12-16T04:12:09.806Z,28.13
2018-12-16T04:14:38.633Z,27.90
2018-12-16T04:17:07.468Z,27.97
2018-12-16T04:19:36.303Z,30.53
2018-12-16T04:22:05.155Z,31.40
2018-12-16T04:24:33.993Z,32.20
2018-12-16T04:27:02.834Z,29.53
2018-12-16T04:29:31.687Z,32.10
2018-12-16T04:32:00.526Z,31.70
2018-12-16T04:34:30.138Z,32.63
2018-12-16T04:36:59.730Z,33.97
2018-12-16T04:39:28.561Z,33.83
2018-12-16T04:41:57.399Z,32.13
2018-12-16T04:44:26.838Z,32.10
2018-12-16T04:46:55.677Z,34.03
2018-12-16T04:49:24.513Z,33.53
2018-12-16T04:51:53.339Z,30.17
2018-12-16T04:54:22.177Z,30.13
2018-12-16T04:56:51.032Z,31.87
2018-12-16T04:59:19.867Z,35.97
2018-12-16T05:01:48.711Z,33.40
2018-12-16T05:04:17.549Z,33.60
2018-12-16T05:06:46.391Z,32.40
2018-12-16T05:09:15.232Z,36.60
2018-12-16T05:11:44.068Z,36.70
2018-12-16T05:14:12.897Z,34.83
2018-12-16T05:16:42.465Z,35.67
2018-12-16T05:19:11.311Z,38.85
2018-12-16T05:21:40.154Z,34.03
2018-12-16T05:24:09.000Z,29.10
2018-12-16T05:26:37.828Z,35.17
2018-12-16T05:29:06.669Z,37.60
2018-12-16T05:31:35.508Z,38.50
2018-12-16T05:34:04.349Z,36.27
2018-12-16T05:36:33.180Z,39.70
2018-12-16T05:39:02.016Z,38.30
2018-12-16T05:41:30.847Z,39.00
2018-12-16T05:43:59.682Z,37.90
2018-12-16T05:46:28.513Z,38.10
2018-12-16T05:48:57.356Z,37.90
2018-12-16T05:51:26.928Z,39.60
2018-12-16T05:53:55.858Z,38.47
2018-12-16T05:56:24.712Z,34.30
2018-12-16T05:58:54.265Z,38.87
2018-12-16T06:01:23.105Z,35.53
2018-12-16T06:03:51.950Z,37.17
2018-12-16T06:06:20.794Z,35.50
2018-12-16T06:08:49.636Z,37.60
2018-12-16T06:11:18.503Z,38.30
2018-12-16T06:13:47.327Z,33.60
2018-12-16T06:16:16.184Z,34.83
2018-12-16T06:18:45.028Z,36.33
2018-12-16T06:21:13.887Z,36.10
2018-12-16T06:23:43.472Z,37.27
2018-12-16T06:26:12.307Z,36.77
2018-12-16T06:28:41.155Z,35.70
2018-12-16T06:31:09.992Z,36.20
2018-12-16T06:33:38.844Z,37.00
2018-12-16T06:36:07.694Z,34.07
2018-12-16T06:38:36.534Z,36.60
2018-12-16T06:41:06.115Z,37.03
2018-12-16T06:43:34.961Z,36.50
2018-12-16T06:46:03.819Z,38.37
2018-12-16T06:48:32.654Z,38.00
2018-12-16T06:51:01.494Z,36.85
2018-12-16T06:53:30.347Z,35.30
2018-12-16T06:55:59.191Z,37.03
2018-12-16T06:58:28.026Z,37.03
2018-12-16T07:00:56.868Z,36.87
2018-12-16T07:03:25.697Z,36.10
2018-12-16T07:05:54.540Z,35.63
2018-12-16T07:08:23.392Z,37.63
2018-12-16T07:10:52.256Z,38.43
2018-12-16T07:13:21.112Z,37.63
2018-12-16T07:15:50.672Z,37.77
2018-12-16T07:18:19.512Z,35.57
2018-12-16T07:20:48.362Z,36.13
2018-12-16T07:23:17.250Z,37.27
2018-12-16T07:25:46.060Z,37.92
2018-12-16T07:28:16.574Z,37.17
2018-12-16T07:30:43.739Z,36.67
2018-12-16T07:33:13.326Z,37.27
2018-12-16T07:37:05.691Z,36.47
2018-12-16T07:39:35.284Z,37.70
2018-12-16T07:42:04.119Z,35.37
2018-12-16T07:44:32.967Z,39.97
2018-12-16T07:47:02.589Z,37.37
2018-12-16T07:49:32.202Z,40.92
2018-12-16T07:52:01.021Z,36.50
2018-12-16T07:54:29.865Z,39.00
2018-12-16T07:56:58.741Z,38.53
2018-12-16T07:59:27.584Z,37.77
2018-12-16T08:01:57.198Z,36.73
2018-12-16T08:04:26.013Z,36.23
2018-12-16T08:06:54.869Z,41.13
2018-12-16T08:09:24.441Z,35.30
2018-12-16T08:11:54.036Z,40.67
2018-12-16T08:14:22.889Z,39.90
2018-12-16T08:16:51.748Z,45.25
2018-12-16T08:19:20.638Z,41.20
2018-12-16T08:21:49.448Z,43.07
2018-12-16T08:24:23.092Z,41.97
2018-12-16T08:26:47.169Z,42.73
2018-12-16T08:29:16.748Z,42.23
2018-12-16T08:31:45.590Z,48.30
2018-12-16T08:34:14.426Z,43.53
2018-12-16T08:36:43.295Z,42.37
2018-12-16T08:39:12.132Z,42.63
2018-12-16T08:41:41.725Z,38.10
2018-12-16T08:44:10.564Z,36.03
2018-12-16T08:46:39.429Z,37.00
2018-12-16T08:49:09.044Z,36.83
2018-12-16T08:51:37.858Z,39.72
2018-12-16T08:54:06.694Z,37.20
2018-12-16T08:56:35.527Z,39.10
2018-12-16T08:59:04.367Z,37.93
2018-12-16T09:01:33.474Z,40.63
2018-12-16T09:04:02.239Z,41.67
2018-12-16T09:06:31.093Z,39.67
2018-12-16T09:08:59.925Z,39.33
2018-12-16T09:11:28.770Z,38.23
2018-12-16T09:13:57.615Z,39.23
2018-12-16T09:16:27.219Z,38.70
2018-12-16T09:18:56.059Z,42.35
2018-12-16T09:21:24.903Z,39.07
2018-12-16T09:23:53.766Z,40.47
2018-12-16T09:26:22.608Z,44.08
2018-12-16T09:28:51.460Z,43.63
2018-12-16T09:31:20.315Z,43.97
2018-12-16T09:33:49.155Z,40.73
2018-12-16T09:36:18.020Z,41.53
2018-12-16T09:38:46.857Z,43.43
2018-12-16T09:41:15.706Z,43.03
2018-12-16T09:43:45.297Z,40.63
2018-12-16T09:46:14.132Z,41.10
2018-12-16T09:48:42.973Z,37.83
2018-12-16T09:51:11.810Z,38.43
2018-12-16T09:53:40.657Z,35.60
2018-12-16T09:56:09.506Z,36.30
2018-12-16T09:58:38.360Z,38.13
2018-12-16T10:01:07.965Z,35.97
2018-12-16T10:03:37.560Z,35.63
2018-12-16T10:06:06.431Z,37.73
2018-12-16T10:08:35.276Z,37.60
2018-12-16T10:11:04.120Z,33.90
2018-12-16T10:13:32.971Z,35.23
2018-12-16T10:16:01.797Z,32.33
2018-12-16T10:18:30.649Z,29.30
2018-12-16T10:20:59.482Z,31.53
2018-12-16T10:23:28.334Z,33.73
2018-12-16T10:25:57.174Z,35.25
2018-12-16T10:28:26.785Z,34.97
2018-12-16T10:30:55.641Z,33.23
2018-12-16T10:33:24.536Z,36.95
2018-12-16T10:35:53.350Z,31.73
2018-12-16T10:38:22.935Z,34.70
2018-12-16T10:40:51.842Z,36.20
2018-12-16T10:43:20.647Z,37.03
2018-12-16T10:45:50.222Z,33.50
2018-12-16T10:48:19.104Z,37.80
2018-12-16T10:50:47.920Z,31.13
2018-12-16T10:53:17.510Z,31.13
2018-12-16T10:55:46.364Z,29.87
2018-12-16T10:58:15.198Z,30.83
2018-12-16T11:00:47.757Z,37.40
2018-12-16T11:03:16.604Z,37.03
2018-12-16T11:05:45.445Z,33.73
2018-12-16T11:08:14.290Z,32.07
2018-12-16T11:10:43.149Z,33.93
2018-12-16T11:13:12.008Z,36.27
2018-12-16T11:15:41.582Z,33.87
2018-12-16T11:18:10.436Z,40.27
2018-12-16T11:20:39.301Z,38.00
2018-12-16T11:23:08.161Z,34.60
2018-12-16T11:25:37.005Z,38.15
2018-12-16T11:28:05.852Z,32.13
2018-12-16T11:30:34.691Z,33.37
2018-12-16T11:33:03.533Z,37.63
2018-12-16T11:35:32.374Z,36.47
2018-12-16T11:38:01.223Z,37.23
2018-12-16T11:40:30.074Z,39.47
2018-12-16T11:42:58.913Z,41.67
2018-12-16T11:45:28.518Z,39.90
2018-12-16T11:47:57.404Z,38.93
2018-12-16T11:50:26.245Z,39.07
2018-12-16T11:52:55.085Z,39.63
2018-12-16T11:55:23.932Z,39.60
2018-12-16T11:57:52.758Z,37.87
2018-12-16T12:00:21.613Z,35.27
2018-12-16T12:02:51.185Z,34.83
2018-12-16T12:05:20.031Z,38.87
2018-12-16T12:07:48.891Z,35.80
2018-12-16T12:10:17.730Z,38.07
2018-12-16T12:12:46.570Z,37.37
2018-12-16T12:15:15.418Z,41.13
2018-12-16T12:17:44.257Z,42.15
2018-12-16T12:20:13.833Z,40.97
2018-12-16T12:22:42.665Z,40.53
2018-12-16T12:25:11.531Z,40.57
2018-12-16T12:27:40.368Z,37.47
2018-12-16T12:30:09.215Z,34.27
2018-12-16T12:32:38.071Z,36.27
2018-12-16T12:35:06.989Z,36.63
2018-12-16T12:37:36.498Z,34.27
2018-12-16T12:40:05.327Z,39.53
2018-12-16T12:42:34.179Z,40.63
2018-12-16T12:45:03.034Z,36.07
2018-12-16T12:47:31.874Z,39.50
2018-12-16T12:50:00.704Z,38.00
2018-12-16T12:52:29.531Z,39.87
2018-12-16T12:54:59.105Z,42.30
2018-12-16T12:57:27.943Z,45.03
2018-12-16T12:59:57.534Z,43.43
2018-12-16T13:02:26.394Z,46.50
2018-12-16T13:04:55.191Z,43.63
2018-12-16T13:07:24.030Z,45.13
2018-12-16T13:09:52.867Z,48.03
2018-12-16T13:12:21.722Z,48.93
2018-12-16T13:14:50.558Z,44.63
2018-12-16T13:17:19.399Z,47.08
2018-12-16T13:19:48.296Z,45.33
2018-12-16T13:22:17.107Z,48.17
2018-12-16T13:25:03.761Z,48.10
2018-12-16T13:27:32.586Z,50.17
2018-12-16T13:30:01.421Z,48.03
2018-12-16T13:32:30.266Z,49.60
2018-12-16T13:34:59.101Z,44.20
2018-12-16T13:37:27.965Z,47.30
2018-12-16T13:39:56.802Z,44.50
2018-12-16T13:42:25.649Z,43.73
2018-12-16T13:44:54.475Z,46.40
2018-12-16T13:47:23.390Z,40.20
2018-12-16T13:49:52.217Z,43.00
2018-12-16T13:52:21.077Z,46.80
2018-12-16T13:54:49.921Z,62.13
2018-12-16T13:57:18.768Z,77.27
2018-12-16T13:59:47.597Z,64.30
2018-12-16T14:02:16.446Z,57.43
2018-12-16T14:04:45.295Z,52.67
2018-12-16T14:07:14.142Z,50.17
2018-12-16T14:09:42.969Z,63.23
2018-12-16T14:12:11.826Z,64.13
2018-12-16T14:14:40.695Z,73.77
2018-12-16T14:17:09.541Z,76.85
2018-12-16T14:19:38.393Z,60.87
2018-12-16T14:22:07.237Z,70.43
2018-12-16T14:24:36.082Z,63.83
2018-12-16T14:27:05.701Z,59.40
2018-12-16T14:29:34.509Z,63.77
2018-12-16T14:32:03.353Z,62.13
2018-12-16T14:34:32.191Z,54.27
2018-12-16T14:37:01.047Z,55.73
2018-12-16T14:39:30.618Z,60.63
2018-12-16T14:41:59.473Z,51.10
2018-12-16T14:44:28.320Z,63.90
2018-12-16T14:46:57.746Z,62.13
2018-12-16T14:49:26.584Z,65.37
2018-12-16T14:51:55.444Z,58.93
2018-12-16T14:54:24.289Z,59.50
2018-12-16T14:56:53.138Z,67.90
2018-12-16T14:59:21.991Z,63.57
2018-12-16T15:01:50.830Z,60.13
2018-12-16T15:04:19.677Z,68.00
2018-12-16T15:06:48.522Z,64.63
2018-12-16T15:09:17.364Z,64.53
2018-12-16T15:11:46.212Z,70.97
2018-12-16T15:14:15.062Z,69.23
2018-12-16T15:16:44.124Z,63.73
2018-12-16T15:19:13.699Z,75.73
2018-12-16T15:21:43.806Z,72.40
2018-12-16T15:24:11.370Z,72.33
2018-12-16T15:26:40.250Z,71.83
2018-12-16T15:32:07.267Z,85.80
2018-12-16T15:34:36.873Z,75.77
2018-12-16T15:37:05.709Z,70.27
2018-12-16T15:39:34.549Z,80.63
2018-12-16T15:42:04.119Z,70.27
2018-12-16T15:44:32.957Z,74.10
2018-12-16T15:47:01.801Z,88.53
2018-12-16T15:49:30.714Z,88.43
2018-12-16T15:51:59.501Z,95.70
2018-12-16T15:54:28.335Z,85.93
2018-12-16T15:56:57.174Z,79.53
2018-12-16T15:59:26.014Z,71.40
2018-12-16T16:01:54.862Z,81.13
2018-12-16T16:04:23.694Z,83.10
2018-12-16T16:06:52.524Z,81.67
2018-12-16T16:09:21.381Z,77.00
2018-12-16T16:11:50.213Z,83.63
2018-12-16T16:14:19.784Z,82.07
2018-12-16T16:16:48.624Z,89.87
2018-12-16T16:19:17.470Z,90.87
2018-12-16T16:21:46.347Z,81.13
2018-12-16T16:24:16.622Z,81.00
2018-12-16T16:26:45.431Z,75.90
2018-12-16T16:29:14.284Z,82.93
2018-12-16T16:31:43.862Z,93.70
2018-12-16T16:34:12.708Z,87.20
2018-12-16T16:36:41.541Z,80.20
2018-12-16T16:39:10.383Z,80.23
2018-12-16T16:41:39.228Z,64.13
2018-12-16T16:44:08.082Z,80.13
2018-12-16T16:46:36.924Z,67.33
2018-12-16T16:49:06.548Z,64.83
2018-12-16T16:51:35.469Z,66.78
2018-12-16T16:54:04.345Z,77.57
2018-12-16T16:56:33.246Z,68.70
2018-12-16T16:59:02.027Z,66.73
2018-12-16T17:01:30.874Z,69.13
2018-12-16T17:03:59.740Z,83.70
2018-12-16T17:06:28.590Z,83.25
2018-12-16T17:08:57.482Z,94.03
2018-12-16T17:11:26.847Z,84.80
2018-12-16T17:13:55.699Z,86.65
2018-12-16T17:16:24.526Z,80.60
2018-12-16T17:18:54.110Z,86.60
2018-12-16T17:21:22.968Z,107.20
2018-12-16T17:23:51.852Z,96.50
2018-12-16T17:26:20.660Z,103.43
2018-12-16T17:28:49.512Z,89.80
2018-12-16T17:31:18.393Z,92.03
2018-12-16T17:33:47.237Z,76.73
2018-12-16T17:36:16.071Z,72.73
2018-12-16T17:38:44.907Z,68.63
2018-12-16T17:41:13.746Z,72.73
2018-12-16T17:43:42.592Z,68.77
2018-12-16T17:46:12.422Z,68.03
2018-12-16T17:48:42.004Z,70.33
2018-12-16T17:51:10.850Z,72.90
2018-12-16T17:53:39.702Z,72.57
2018-12-16T17:56:09.355Z,77.17
2018-12-16T17:58:38.215Z,72.67
2018-12-16T18:01:07.126Z,71.15
2018-12-16T18:03:35.970Z,78.30
2018-12-16T18:06:04.804Z,70.43
2018-12-16T18:08:33.668Z,73.17
2018-12-16T18:11:02.515Z,75.43
2018-12-16T18:13:31.341Z,73.27
2018-12-16T18:16:00.194Z,86.27
2018-12-16T18:18:29.774Z,71.87
2018-12-16T18:20:58.626Z,69.80
2018-12-16T18:23:29.789Z,83.97
2018-12-16T18:25:56.320Z,73.73
2018-12-16T18:28:25.219Z,69.43
2018-12-16T18:30:54.029Z,71.25
2018-12-16T18:33:23.612Z,74.87
2018-12-16T18:35:52.487Z,75.07
2018-12-16T18:38:21.338Z,87.13
2018-12-16T18:40:50.191Z,76.40
2018-12-16T18:43:19.058Z,69.23
2018-12-16T18:45:47.900Z,81.57
2018-12-16T18:48:16.754Z,70.47
2018-12-16T18:50:45.614Z,66.93
2018-12-16T18:53:14.445Z,70.23
2018-12-16T18:55:43.309Z,73.53
2018-12-16T18:58:12.213Z,65.23
2018-12-16T19:00:40.992Z,62.67
2018-12-16T19:03:09.849Z,66.60
2018-12-16T19:05:38.681Z,77.90
2018-12-16T19:08:07.562Z,90.77
2018-12-16T19:10:36.380Z,82.67
2018-12-16T19:13:05.964Z,86.87
2018-12-16T19:15:34.814Z,86.10
2018-12-16T19:18:03.702Z,74.40
2018-12-16T19:20:32.523Z,58.80
2018-12-16T19:23:01.411Z,95.55
2018-12-16T19:25:30.277Z,91.20
2018-12-16T19:27:59.159Z,77.10
2018-12-16T19:30:28.016Z,80.63
2018-12-16T19:32:57.603Z,87.10
2018-12-16T19:35:26.451Z,95.20
2018-12-16T19:37:55.296Z,81.93
2018-12-16T19:40:24.157Z,72.80
2018-12-16T19:42:53.054Z,95.05
2018-12-16T19:45:22.654Z,89.93
2018-12-16T19:47:51.497Z,84.60
2018-12-16T19:50:20.337Z,83.90
2018-12-16T19:52:49.193Z,93.30
2018-12-16T19:55:18.104Z,85.10
2018-12-16T19:57:46.894Z,79.20
2018-12-16T20:00:15.742Z,87.07
2018-12-16T20:02:44.588Z,93.57
2018-12-16T20:05:19.017Z,97.47
2018-12-16T20:07:47.833Z,106.13
2018-12-16T20:10:16.666Z,73.77
2018-12-16T20:12:45.534Z,80.43
2018-12-16T20:15:14.384Z,72.07
2018-12-16T20:17:43.995Z,74.57
2018-12-16T20:20:12.871Z,117.80
2018-12-16T20:22:42.830Z,125.17
2018-12-16T20:25:11.663Z,126.00
2018-12-16T20:27:40.520Z,112.45
2018-12-16T20:30:09.547Z,95.80
2018-12-16T20:32:38.424Z,92.87
2018-12-16T20:35:07.283Z,100.40
2018-12-16T20:37:36.134Z,79.47
2018-12-16T20:40:05.715Z,74.23
2018-12-16T20:42:34.553Z,88.53
2018-12-16T20:45:03.417Z,92.87
2018-12-16T20:47:33.002Z,84.10
2018-12-16T20:50:01.864Z,80.33
2018-12-16T20:52:30.765Z,82.68
2018-12-16T20:54:59.633Z,70.70
2018-12-16T20:57:29.192Z,69.93
2018-12-16T20:59:58.058Z,66.47
2018-12-16T21:02:26.912Z,63.83
2018-12-16T21:04:55.819Z,53.47
2018-12-16T21:07:24.636Z,50.13
2018-12-16T21:09:53.488Z,54.13
2018-12-16T21:12:28.239Z,60.70
2018-12-16T21:15:02.456Z,53.07
2018-12-16T21:17:37.004Z,53.43
2018-12-16T21:20:05.819Z,56.20
2018-12-16T21:22:34.658Z,53.90
2018-12-16T21:25:03.510Z,49.20
2018-12-16T21:27:32.351Z,55.27
2018-12-16T21:30:01.235Z,52.20
2018-12-16T21:32:30.063Z,65.37
2018-12-16T21:34:58.905Z,57.80
2018-12-16T21:37:27.789Z,53.30
2018-12-16T21:39:56.644Z,55.27
2018-12-16T21:42:25.512Z,54.40
2018-12-16T21:44:54.353Z,60.57
2018-12-16T21:47:23.209Z,55.77
2018-12-16T21:49:52.080Z,60.30
2018-12-16T21:52:21.660Z,73.17
2018-12-16T21:54:50.526Z,87.93
2018-12-16T21:57:19.596Z,68.47
2018-12-16T21:59:48.300Z,69.33
2018-12-16T22:02:17.140Z,75.63
2018-12-16T22:04:45.997Z,67.23
2018-12-16T22:07:14.839Z,89.10
2018-12-16T22:09:43.685Z,92.40
2018-12-16T22:12:12.550Z,83.53
2018-12-16T22:14:41.386Z,83.22
2018-12-16T22:17:10.235Z,74.03
2018-12-16T22:19:39.073Z,77.53
2018-12-16T22:22:07.922Z,67.97
2018-12-16T22:24:37.349Z,57.27
2018-12-16T22:27:06.946Z,63.55
2018-12-16T22:29:36.535Z,68.43
2018-12-16T22:32:05.374Z,71.73
2018-12-16T22:34:34.216Z,65.77
2018-12-16T22:37:03.063Z,73.83
2018-12-16T22:39:31.903Z,64.17
2018-12-16T22:42:00.753Z,63.93
2018-12-16T22:44:29.602Z,64.37
2018-12-16T22:46:59.194Z,63.93
2018-12-16T22:49:28.809Z,62.83
2018-12-16T22:51:57.615Z,60.33
2018-12-16T22:54:26.475Z,62.47
2018-12-16T22:56:55.333Z,64.47
2018-12-16T22:59:24.181Z,61.30
2018-12-16T23:01:53.035Z,54.50
2018-12-16T23:04:21.924Z,60.50
2018-12-16T23:06:50.753Z,58.43
2018-12-16T23:09:19.663Z,50.70
2018-12-16T23:11:50.337Z,56.30
2018-12-16T23:14:19.146Z,62.17
2018-12-16T23:16:48.755Z,56.20
2018-12-16T23:19:18.339Z,54.87
2018-12-16T23:21:47.188Z,51.93
2018-12-16T23:24:16.038Z,51.13
2018-12-16T23:26:44.898Z,47.10
2018-12-16T23:29:13.774Z,46.30
2018-12-16T23:31:42.584Z,45.37
2018-12-16T23:34:11.446Z,46.00
2018-12-16T23:36:40.281Z,45.60
2018-12-16T23:39:09.865Z,43.87
2018-12-16T23:41:38.720Z,48.10
2018-12-16T23:44:07.567Z,48.15
2018-12-16T23:46:37.206Z,43.07
2018-12-16T23:49:06.753Z,42.27
2018-12-16T23:51:36.200Z,44.67
2018-12-16T23:54:05.044Z,42.60
2018-12-16T23:56:34.046Z,38.40
2018-12-16T23:59:02.743Z,41.50
